createdAt,value
2018-01-24T00:00:58.885Z,1.10
2018-01-24T00:03:27.333Z,0.87
2018-01-24T00:05:54.792Z,1.03
2018-01-24T00:08:22.260Z,0.93
2018-01-24T00:10:49.740Z,1.07
2018-01-24T00:13:17.210Z,0.93
2018-01-24T00:15:45.449Z,1.13
2018-01-24T00:18:13.857Z,0.90
2018-01-24T00:20:42.090Z,1.00
2018-01-24T00:23:09.565Z,0.80
2018-01-24T00:25:37.045Z,1.07
2018-01-24T00:28:04.540Z,0.80
2018-01-24T00:30:32.052Z,0.80
2018-01-24T00:32:59.536Z,1.20
2018-01-24T00:35:27.769Z,1.00
2018-01-24T00:37:55.253Z,1.00
2018-01-24T00:40:23.588Z,0.90
2018-01-24T00:42:51.053Z,0.93
2018-01-24T00:45:18.672Z,0.90
2018-01-24T00:47:46.160Z,1.10
2018-01-24T00:50:13.635Z,1.07
2018-01-24T00:52:42.136Z,1.23
2018-01-24T00:55:09.624Z,1.13
2018-01-24T00:57:37.205Z,1.10
2018-01-24T01:00:04.839Z,1.20
2018-01-24T01:02:33.061Z,1.10
2018-01-24T01:05:00.576Z,0.80
2018-01-24T01:07:28.068Z,1.30
2018-01-24T01:09:55.543Z,1.20
2018-01-24T01:12:23.009Z,1.07
2018-01-24T01:14:50.480Z,1.30
2018-01-24T01:17:17.980Z,1.30
2018-01-24T01:19:45.429Z,1.40
2018-01-24T01:22:12.956Z,1.13
2018-01-24T01:24:40.408Z,1.10
2018-01-24T01:27:08.682Z,1.40
2018-01-24T01:29:36.316Z,1.20
2018-01-24T01:32:04.005Z,1.10
2018-01-24T01:34:31.463Z,1.13
2018-01-24T01:36:59.711Z,1.20
2018-01-24T01:39:27.956Z,1.60
2018-01-24T01:41:55.450Z,1.43
2018-01-24T01:44:22.923Z,1.40
2018-01-24T01:46:50.635Z,1.30
2018-01-24T01:49:18.185Z,1.63
2018-01-24T01:51:45.855Z,1.33
2018-01-24T01:54:13.676Z,1.20
2018-01-24T01:56:41.196Z,1.30
2018-01-24T01:59:08.682Z,1.60
2018-01-24T02:01:37.204Z,1.33
2018-01-24T02:04:04.700Z,1.30
2018-01-24T02:06:32.276Z,1.40
2018-01-24T02:09:00.594Z,1.30
2018-01-24T02:11:28.841Z,1.20
2018-01-24T02:13:57.116Z,1.40
2018-01-24T02:16:25.505Z,1.30
2018-01-24T02:18:53.151Z,1.23
2018-01-24T02:21:20.660Z,1.10
2018-01-24T02:23:48.297Z,1.13
2018-01-24T02:26:15.808Z,1.33
2018-01-24T02:28:43.491Z,1.50
2018-01-24T02:31:10.957Z,1.30
2018-01-24T02:33:40.157Z,1.40
2018-01-24T02:36:08.391Z,1.03
2018-01-24T02:38:47.841Z,1.20
2018-01-24T02:41:15.301Z,1.40
2018-01-24T02:43:42.823Z,1.30
2018-01-24T02:46:10.281Z,1.43
2018-01-24T02:48:37.750Z,1.30
2018-01-24T02:51:05.357Z,1.27
2018-01-24T02:53:34.459Z,1.20
2018-01-24T02:56:02.694Z,1.27
2018-01-24T02:58:30.234Z,1.20
2018-01-24T03:00:57.698Z,1.30
2018-01-24T03:03:25.177Z,1.10
2018-01-24T03:05:53.686Z,1.30
2018-01-24T03:08:22.453Z,1.10
2018-01-24T03:10:49.906Z,1.07
2018-01-24T03:13:17.572Z,1.10
2018-01-24T03:15:45.814Z,1.33
2018-01-24T03:18:13.355Z,1.10
2018-01-24T03:20:40.896Z,1.20
2018-01-24T03:23:08.414Z,1.30
2018-01-24T03:25:35.903Z,1.23
2018-01-24T03:28:05.031Z,1.30
2018-01-24T03:30:32.501Z,1.00
2018-01-24T03:33:00.013Z,1.20
2018-01-24T03:35:28.859Z,1.10
2018-01-24T03:37:56.367Z,1.00
2018-01-24T03:40:24.681Z,1.33
2018-01-24T03:42:52.216Z,1.00
2018-01-24T03:45:19.697Z,0.90
2018-01-24T03:47:48.037Z,1.03
2018-01-24T03:50:16.346Z,0.90
2018-01-24T03:52:43.814Z,1.00
2018-01-24T03:55:11.274Z,1.07
2018-01-24T03:57:38.878Z,1.10
2018-01-24T04:00:07.099Z,1.00
2018-01-24T04:02:35.495Z,1.00
2018-01-24T04:05:02.956Z,1.00
2018-01-24T04:07:30.437Z,1.20
2018-01-24T04:09:58.664Z,1.10
2018-01-24T04:12:26.356Z,1.10
2018-01-24T04:14:53.889Z,1.13
2018-01-24T04:17:22.382Z,1.37
2018-01-24T04:19:49.883Z,1.13
2018-01-24T04:22:18.110Z,1.10
2018-01-24T04:24:45.578Z,1.17
2018-01-24T04:27:13.057Z,1.10
2018-01-24T04:29:40.529Z,1.10
2018-01-24T04:32:09.708Z,1.10
2018-01-24T04:34:38.058Z,1.87
2018-01-24T04:37:05.598Z,1.30
2018-01-24T04:39:33.085Z,1.37
2018-01-24T04:42:00.564Z,1.20
2018-01-24T04:44:28.046Z,1.27
2018-01-24T04:46:55.502Z,1.20
2018-01-24T04:49:23.222Z,1.30
2018-01-24T04:51:50.896Z,1.00
2018-01-24T04:54:19.575Z,0.77
2018-01-24T04:56:47.046Z,1.10
2018-01-24T04:59:15.274Z,1.00
2018-01-24T05:01:42.762Z,1.00
2018-01-24T05:04:10.426Z,0.97
2018-01-24T05:06:38.682Z,1.00
2018-01-24T05:09:06.155Z,1.23
2018-01-24T05:11:33.632Z,1.00
2018-01-24T05:14:01.871Z,1.00
2018-01-24T05:16:29.353Z,1.03
2018-01-24T05:18:57.576Z,1.13
2018-01-24T05:21:28.887Z,1.10
2018-01-24T05:23:57.801Z,0.90
2018-01-24T05:26:25.292Z,0.80
2018-01-24T05:28:52.752Z,0.90
2018-01-24T05:31:20.212Z,1.03
2018-01-24T05:33:47.712Z,0.90
2018-01-24T05:36:16.075Z,0.90
2018-01-24T05:38:43.736Z,1.00
2018-01-24T05:41:11.225Z,0.97
2018-01-24T05:43:39.620Z,1.07
2018-01-24T05:46:07.104Z,1.00
2018-01-24T05:48:35.435Z,1.00
2018-01-24T05:51:02.961Z,1.07
2018-01-24T05:53:31.370Z,0.90
2018-01-24T05:56:00.698Z,1.27
2018-01-24T05:58:28.224Z,0.90
2018-01-24T06:00:55.754Z,0.97
2018-01-24T06:03:23.246Z,1.37
2018-01-24T06:05:51.725Z,1.07
2018-01-24T06:08:19.800Z,1.00
2018-01-24T06:10:47.370Z,1.10
2018-01-24T06:13:15.014Z,1.20
2018-01-24T06:15:42.497Z,1.10
2018-01-24T06:18:09.966Z,1.13
2018-01-24T06:20:37.461Z,1.13
2018-01-24T06:23:05.754Z,1.27
2018-01-24T06:25:35.014Z,1.20
2018-01-24T06:28:02.521Z,1.20
2018-01-24T06:30:30.141Z,1.17
2018-01-24T06:32:58.006Z,1.27
2018-01-24T06:35:25.568Z,0.93
2018-01-24T06:37:53.057Z,1.10
2018-01-24T06:40:21.537Z,0.93
2018-01-24T06:42:49.884Z,1.10
2018-01-24T06:45:17.452Z,1.00
2018-01-24T06:47:46.132Z,1.03
2018-01-24T06:50:13.738Z,0.90
2018-01-24T06:52:41.972Z,0.90
2018-01-24T06:55:10.231Z,0.80
2018-01-24T06:57:37.704Z,0.80
2018-01-24T07:00:06.696Z,1.10
2018-01-24T07:02:34.169Z,0.80
2018-01-24T07:05:02.413Z,0.80
2018-01-24T07:07:29.889Z,0.87
2018-01-24T07:09:58.152Z,0.90
2018-01-24T07:12:37.580Z,0.90
2018-01-24T07:15:05.156Z,0.90
2018-01-24T07:17:33.420Z,0.80
2018-01-24T07:20:00.885Z,1.00
2018-01-24T07:22:28.531Z,0.90
2018-01-24T07:24:57.620Z,1.00
2018-01-24T07:27:25.215Z,1.20
2018-01-24T07:29:53.569Z,1.00
2018-01-24T07:32:21.164Z,1.30
2018-01-24T07:34:49.408Z,0.97
2018-01-24T07:37:16.956Z,1.10
2018-01-24T07:39:44.429Z,0.80
2018-01-24T07:42:13.539Z,1.30
2018-01-24T07:44:41.768Z,1.30
2018-01-24T07:47:09.281Z,0.93
2018-01-24T07:49:37.635Z,1.23
2018-01-24T07:52:05.909Z,1.10
2018-01-24T07:54:33.508Z,1.20
2018-01-24T07:57:01.026Z,1.10
2018-01-24T07:59:28.496Z,1.30
2018-01-24T08:01:56.956Z,1.30
2018-01-24T08:04:24.543Z,1.30
2018-01-24T08:06:53.577Z,1.00
2018-01-24T08:09:22.170Z,1.27
2018-01-24T08:11:49.721Z,0.80
2018-01-24T08:14:17.201Z,1.20
2018-01-24T08:16:44.838Z,1.70
2018-01-24T08:19:12.308Z,1.70
2018-01-24T08:21:39.920Z,1.30
2018-01-24T08:24:08.160Z,1.37
2018-01-24T08:26:36.676Z,1.10
2018-01-24T08:29:04.904Z,1.57
2018-01-24T08:31:32.390Z,1.37
2018-01-24T08:34:00.784Z,1.30
2018-01-24T08:36:29.028Z,1.20
2018-01-24T08:38:57.520Z,1.93
2018-01-24T08:41:25.104Z,1.27
2018-01-24T08:43:53.331Z,1.40
2018-01-24T08:46:20.841Z,1.33
2018-01-24T08:48:49.280Z,1.10
2018-01-24T08:51:17.126Z,1.20
2018-01-24T08:53:44.602Z,1.20
2018-01-24T08:56:12.064Z,1.20
2018-01-24T08:58:39.552Z,1.10
2018-01-24T09:01:07.796Z,1.60
2018-01-24T09:03:36.052Z,1.30
2018-01-24T09:06:03.505Z,1.20
2018-01-24T09:08:31.186Z,1.50
2018-01-24T09:10:58.656Z,1.30
2018-01-24T09:13:27.643Z,1.70
2018-01-24T09:15:56.036Z,1.57
2018-01-24T09:18:23.518Z,1.20
2018-01-24T09:20:51.061Z,1.40
2018-01-24T09:23:19.412Z,1.40
2018-01-24T09:25:48.378Z,1.70
2018-01-24T09:28:15.873Z,1.50
2018-01-24T09:30:44.207Z,1.37
2018-01-24T09:33:11.801Z,1.10
2018-01-24T09:35:39.372Z,1.30
2018-01-24T09:38:06.845Z,1.47
2018-01-24T09:40:35.282Z,1.10
2018-01-24T09:43:04.681Z,1.20
2018-01-24T09:45:32.681Z,1.20
2018-01-24T09:48:00.142Z,1.33
2018-01-24T09:50:28.396Z,1.00
2018-01-24T09:52:56.640Z,1.10
2018-01-24T09:55:24.180Z,1.30
2018-01-24T09:57:51.659Z,1.17
2018-01-24T10:00:19.258Z,1.00
2018-01-24T10:02:46.812Z,1.20
2018-01-24T10:05:15.364Z,1.10
2018-01-24T10:07:43.848Z,1.20
2018-01-24T10:10:12.330Z,1.10
2018-01-24T10:12:39.847Z,1.17
2018-01-24T10:15:07.312Z,1.40
2018-01-24T10:17:34.799Z,0.83
2018-01-24T10:20:03.212Z,1.20
2018-01-24T10:22:33.224Z,1.20
2018-01-24T10:25:00.696Z,1.00
2018-01-24T10:27:28.924Z,1.00
2018-01-24T10:29:56.412Z,1.00
2018-01-24T10:32:24.805Z,1.00
2018-01-24T10:34:54.276Z,1.07
2018-01-24T10:37:21.742Z,1.00
2018-01-24T10:39:49.389Z,1.00
2018-01-24T10:42:16.881Z,1.07
2018-01-24T10:44:45.131Z,1.10
2018-01-24T10:47:13.587Z,1.07
2018-01-24T10:49:42.016Z,0.93
2018-01-24T10:52:09.467Z,1.23
2018-01-24T10:54:36.974Z,0.80
2018-01-24T10:57:04.437Z,1.20
2018-01-24T10:59:32.060Z,1.23
2018-01-24T11:02:00.310Z,0.90
2018-01-24T11:04:27.785Z,1.00
2018-01-24T11:06:57.005Z,1.10
2018-01-24T11:09:26.165Z,1.00
2018-01-24T11:11:54.525Z,1.10
2018-01-24T11:14:22.164Z,0.90
2018-01-24T11:16:50.462Z,1.10
2018-01-24T11:19:17.948Z,1.00
2018-01-24T11:21:46.242Z,1.00
2018-01-24T11:24:14.488Z,0.80
2018-01-24T11:26:41.962Z,1.00
2018-01-24T11:29:10.204Z,1.10
2018-01-24T11:31:41.715Z,0.83
2018-01-24T11:34:09.187Z,1.00
2018-01-24T11:36:36.646Z,0.90
2018-01-24T11:39:04.254Z,1.20
2018-01-24T11:41:33.755Z,1.27
2018-01-24T11:44:01.415Z,1.20
2018-01-24T11:46:31.032Z,0.90
2018-01-24T11:48:59.278Z,1.30
2018-01-24T11:51:26.732Z,1.00
2018-01-24T11:53:54.212Z,0.93
2018-01-24T11:56:21.692Z,0.90
2018-01-24T11:58:49.947Z,1.00
2018-01-24T12:01:17.397Z,0.97
2018-01-24T12:03:44.916Z,0.90
2018-01-24T12:06:13.367Z,1.20
2018-01-24T12:08:41.614Z,1.00
2018-01-24T12:11:10.609Z,1.00
2018-01-24T12:13:39.071Z,0.93
2018-01-24T12:16:06.640Z,0.90
2018-01-24T12:18:34.220Z,0.80
2018-01-24T12:21:02.577Z,0.90
2018-01-24T12:23:30.055Z,1.10
2018-01-24T12:25:58.301Z,1.20
2018-01-24T12:28:26.716Z,1.00
2018-01-24T12:30:54.973Z,0.90
2018-01-24T12:33:22.477Z,0.90
2018-01-24T12:35:49.955Z,1.00
2018-01-24T12:38:17.421Z,1.03
2018-01-24T12:40:44.908Z,0.93
2018-01-24T12:43:13.255Z,0.83
2018-01-24T12:45:40.736Z,0.90
2018-01-24T12:48:08.292Z,0.93
2018-01-24T12:50:35.765Z,1.50
2018-01-24T12:53:04.019Z,0.80
2018-01-24T12:55:31.497Z,0.80
2018-01-24T12:58:00.684Z,0.80
2018-01-24T13:00:28.947Z,1.00
2018-01-24T13:02:56.568Z,1.10
2018-01-24T13:05:24.032Z,0.90
2018-01-24T13:07:51.657Z,1.20
2018-01-24T13:10:19.905Z,0.80
2018-01-24T13:12:48.264Z,0.80
2018-01-24T13:15:15.848Z,0.80
2018-01-24T13:17:45.094Z,0.80
2018-01-24T13:20:12.599Z,0.77
2018-01-24T13:22:40.034Z,0.80
2018-01-24T13:25:07.569Z,0.80
2018-01-24T13:27:35.197Z,0.90
2018-01-24T13:30:03.468Z,0.90
2018-01-24T13:32:31.796Z,0.80
2018-01-24T13:34:59.392Z,0.80
2018-01-24T13:37:28.370Z,0.80
2018-01-24T13:39:55.840Z,1.37
2018-01-24T13:42:23.304Z,0.90
2018-01-24T13:44:50.788Z,0.93
2018-01-24T13:47:19.228Z,1.10
2018-01-24T13:49:48.201Z,1.00
2018-01-24T13:52:15.701Z,0.80
2018-01-24T13:54:44.079Z,0.83
2018-01-24T13:57:12.331Z,1.00
2018-01-24T13:59:40.601Z,1.13
2018-01-24T14:02:08.097Z,0.90
2018-01-24T14:04:36.428Z,1.20
2018-01-24T14:07:04.738Z,1.00
2018-01-24T14:09:32.995Z,0.83
2018-01-24T14:12:00.489Z,0.90
2018-01-24T14:14:27.977Z,0.77
2018-01-24T14:16:55.568Z,0.97
2018-01-24T14:19:23.038Z,1.00
2018-01-24T14:21:51.290Z,1.00
2018-01-24T14:24:18.752Z,1.10
2018-01-24T14:26:46.400Z,0.90
2018-01-24T14:29:13.932Z,0.90
2018-01-24T14:31:41.513Z,0.90
2018-01-24T14:34:08.981Z,1.10
2018-01-24T14:36:37.528Z,1.03
2018-01-24T14:39:05.138Z,0.90
2018-01-24T14:41:34.294Z,0.80
2018-01-24T14:44:02.992Z,0.80
2018-01-24T14:46:30.785Z,0.83
2018-01-24T14:48:58.248Z,0.80
2018-01-24T14:51:26.729Z,0.87
2018-01-24T14:53:54.214Z,0.83
2018-01-24T14:56:22.541Z,0.80
2018-01-24T14:58:50.116Z,0.97
2018-01-24T15:01:17.751Z,0.93
2018-01-24T15:03:45.326Z,1.00
2018-01-24T15:06:13.006Z,0.90
2018-01-24T15:08:40.489Z,0.97
2018-01-24T15:11:08.980Z,0.90
2018-01-24T15:13:36.473Z,0.80
2018-01-24T15:16:04.933Z,1.00
2018-01-24T15:18:32.417Z,0.90
2018-01-24T15:21:00.845Z,0.80
2018-01-24T15:23:31.228Z,0.70
2018-01-24T15:25:59.473Z,0.80
2018-01-24T15:28:27.048Z,0.90
2018-01-24T15:30:54.651Z,0.70
2018-01-24T15:33:22.885Z,0.80
2018-01-24T15:35:50.376Z,1.10
2018-01-24T15:38:18.613Z,0.70
2018-01-24T15:40:47.039Z,0.87
2018-01-24T15:43:15.280Z,0.70
2018-01-24T15:45:43.804Z,0.80
2018-01-24T15:48:11.456Z,0.70
2018-01-24T15:50:39.794Z,0.80
2018-01-24T15:53:07.262Z,1.00
2018-01-24T15:55:34.725Z,0.93
2018-01-24T15:58:04.976Z,0.70
2018-01-24T16:00:35.161Z,0.90
2018-01-24T16:03:02.717Z,0.80
2018-01-24T16:05:31.197Z,0.80
2018-01-24T16:07:59.639Z,0.70
2018-01-24T16:10:27.103Z,0.80
2018-01-24T16:12:54.577Z,0.80
2018-01-24T16:15:22.048Z,0.97
2018-01-24T16:17:51.644Z,0.90
2018-01-24T16:20:19.202Z,0.80
2018-01-24T16:22:46.869Z,0.80
2018-01-24T16:25:14.332Z,0.80
2018-01-24T16:27:41.929Z,0.80
2018-01-24T16:30:09.444Z,0.70
2018-01-24T16:32:36.924Z,0.80
2018-01-24T16:35:04.385Z,1.00
2018-01-24T16:37:32.639Z,0.70
2018-01-24T16:40:00.145Z,0.80
2018-01-24T16:42:28.357Z,0.80
2018-01-24T16:44:56.119Z,0.80
2018-01-24T16:47:23.604Z,1.00
2018-01-24T16:49:51.951Z,0.80
2018-01-24T16:52:19.412Z,0.90
2018-01-24T16:54:47.381Z,1.00
2018-01-24T16:57:14.898Z,0.90
2018-01-24T16:59:43.072Z,0.80
2018-01-24T17:02:10.541Z,0.80
2018-01-24T17:04:38.023Z,0.90
2018-01-24T17:07:05.501Z,0.90
2018-01-24T17:09:32.984Z,0.80
2018-01-24T17:12:01.404Z,0.87
2018-01-24T17:14:29.089Z,1.03
2018-01-24T17:16:56.576Z,1.00
2018-01-24T17:19:24.158Z,1.00
2018-01-24T17:21:52.711Z,0.93
2018-01-24T17:24:20.188Z,1.00
2018-01-24T17:26:47.689Z,0.90
2018-01-24T17:29:15.156Z,1.00
2018-01-24T17:31:42.638Z,0.80
2018-01-24T17:34:11.062Z,1.20
2018-01-24T17:36:38.531Z,1.00
2018-01-24T17:39:06.981Z,0.97
2018-01-24T17:41:36.230Z,0.93
2018-01-24T17:44:03.830Z,0.90
2018-01-24T17:46:32.098Z,1.13
2018-01-24T17:49:00.367Z,1.10
2018-01-24T17:51:27.872Z,1.20
2018-01-24T17:53:55.344Z,1.30
2018-01-24T17:56:23.802Z,1.27
2018-01-24T17:58:51.293Z,1.23
2018-01-24T18:01:19.748Z,1.33
2018-01-24T18:03:47.215Z,1.20
2018-01-24T18:06:15.670Z,1.07
2018-01-24T18:08:43.133Z,1.30
2018-01-24T18:11:11.605Z,1.10
2018-01-24T18:13:39.577Z,1.20
2018-01-24T18:16:07.087Z,1.30
2018-01-24T18:18:35.394Z,1.23
2018-01-24T18:21:02.814Z,1.20
2018-01-24T18:26:04.884Z,1.40
2018-01-24T18:28:32.417Z,1.07
2018-01-24T18:31:00.048Z,1.27
2018-01-24T18:33:28.353Z,1.40
2018-01-24T18:35:59.982Z,1.53
2018-01-24T18:38:27.461Z,1.30
2018-01-24T18:40:55.101Z,1.60
2018-01-24T18:43:23.349Z,1.20
2018-01-24T18:45:50.841Z,1.37
2018-01-24T18:48:18.852Z,2.80
2018-01-24T18:50:46.344Z,1.33
2018-01-24T18:53:14.007Z,1.50
2018-01-24T18:55:42.226Z,1.47
2018-01-24T18:58:09.722Z,1.40
2018-01-24T19:00:37.196Z,1.60
2018-01-24T19:03:05.509Z,1.23
2018-01-24T19:05:32.987Z,1.30
2018-01-24T19:08:00.588Z,1.50
2018-01-24T19:10:28.974Z,1.63
2018-01-24T19:12:56.437Z,1.50
2018-01-24T19:15:24.664Z,1.37
2018-01-24T19:17:52.185Z,1.37
2018-01-24T19:20:19.668Z,1.40
2018-01-24T19:22:47.184Z,1.60
2018-01-24T19:25:16.503Z,1.43
2018-01-24T19:27:44.988Z,1.40
2018-01-24T19:30:12.462Z,1.50
2018-01-24T19:32:39.917Z,1.67
2018-01-24T19:35:07.403Z,1.73
2018-01-24T19:37:35.804Z,1.60
2018-01-24T19:40:04.058Z,1.30
2018-01-24T19:42:31.557Z,1.30
2018-01-24T19:44:59.094Z,1.50
2018-01-24T19:47:27.331Z,1.40
2018-01-24T19:49:54.882Z,1.30
2018-01-24T19:52:23.089Z,1.43
2018-01-24T19:54:51.501Z,1.20
2018-01-24T19:57:20.731Z,1.30
2018-01-24T19:59:48.184Z,1.40
2018-01-24T20:02:17.239Z,1.40
2018-01-24T20:04:45.465Z,1.40
2018-01-24T20:07:12.960Z,1.43
2018-01-24T20:09:41.194Z,1.27
2018-01-24T20:12:08.682Z,1.43
2018-01-24T20:14:36.164Z,1.27
2018-01-24T20:17:04.549Z,1.30
2018-01-24T20:19:32.823Z,1.50
2018-01-24T20:22:00.346Z,1.53
2018-01-24T20:24:27.792Z,1.40
2018-01-24T20:26:56.374Z,1.47
2018-01-24T20:29:23.874Z,1.47
2018-01-24T20:31:52.102Z,1.47
2018-01-24T20:34:20.473Z,1.60
2018-01-24T20:36:47.946Z,1.40
2018-01-24T20:39:15.437Z,1.80
2018-01-24T20:41:43.673Z,1.30
2018-01-24T20:44:12.044Z,1.30
2018-01-24T20:46:42.189Z,1.40
2018-01-24T20:49:11.169Z,1.70
2018-01-24T20:51:38.645Z,1.30
2018-01-24T20:54:06.890Z,1.63
2018-01-24T20:56:34.370Z,1.70
2018-01-24T20:59:01.853Z,1.70
2018-01-24T21:01:30.090Z,1.50
2018-01-24T21:03:57.572Z,1.60
2018-01-24T21:06:26.228Z,1.73
2018-01-24T21:08:53.817Z,1.40
2018-01-24T21:11:21.291Z,1.30
2018-01-24T21:13:48.773Z,1.90
2018-01-24T21:16:16.256Z,1.57
2018-01-24T21:18:43.747Z,1.67
2018-01-24T21:21:11.716Z,1.50
2018-01-24T21:23:39.959Z,1.40
2018-01-24T21:26:07.548Z,1.63
2018-01-24T21:28:47.802Z,1.53
2018-01-24T21:31:27.757Z,1.50
2018-01-24T21:34:07.085Z,1.73
2018-01-24T21:36:35.470Z,1.60
2018-01-24T21:39:03.773Z,1.67
2018-01-24T21:41:32.094Z,2.03
2018-01-24T21:43:59.656Z,1.40
2018-01-24T21:46:27.110Z,1.97
2018-01-24T21:48:55.535Z,1.53
2018-01-24T21:51:24.708Z,1.40
2018-01-24T21:53:52.231Z,1.60
2018-01-24T21:56:19.706Z,1.30
2018-01-24T21:58:47.336Z,1.40
2018-01-24T22:01:14.847Z,1.60
2018-01-24T22:03:44.106Z,1.67
2018-01-24T22:06:11.613Z,1.30
2018-01-24T22:08:39.976Z,1.53
2018-01-24T22:11:08.221Z,1.30
2018-01-24T22:13:35.908Z,1.90
2018-01-24T22:16:04.208Z,1.30
2018-01-24T22:18:32.485Z,1.40
2018-01-24T22:21:00.000Z,1.53
2018-01-24T22:23:27.475Z,1.40
2018-01-24T22:25:55.071Z,1.60
2018-01-24T22:28:24.308Z,1.43
2018-01-24T22:30:51.866Z,1.37
2018-01-24T22:33:19.544Z,1.47
2018-01-24T22:35:47.073Z,1.53
2018-01-24T22:38:14.565Z,1.43
2018-01-24T22:40:43.105Z,1.83
2018-01-24T22:43:10.592Z,1.57
2018-01-24T22:45:38.146Z,1.70
2018-01-24T22:48:05.643Z,1.50
2018-01-24T22:50:34.011Z,1.10
2018-01-24T22:53:02.405Z,1.40
2018-01-24T22:55:30.692Z,1.50
2018-01-24T22:57:58.965Z,2.10
2018-01-24T23:00:27.236Z,1.60
2018-01-24T23:02:55.604Z,1.57
2018-01-24T23:05:23.115Z,1.37
2018-01-24T23:07:50.610Z,1.40
2018-01-24T23:10:19.154Z,1.60
2018-01-24T23:12:47.359Z,2.10
2018-01-24T23:15:15.637Z,1.30
2018-01-24T23:17:44.229Z,1.60
2018-01-24T23:20:12.484Z,1.57
2018-01-24T23:22:40.015Z,1.50
2018-01-24T23:25:08.090Z,1.70
2018-01-24T23:27:35.594Z,1.40
2018-01-24T23:30:03.215Z,1.27
2018-01-24T23:32:30.715Z,1.70
2018-01-24T23:34:58.983Z,1.40
2018-01-24T23:37:27.228Z,1.60
2018-01-24T23:39:54.736Z,1.30
2018-01-24T23:42:22.220Z,1.63
2018-01-24T23:44:49.844Z,1.37
2018-01-24T23:47:18.213Z,1.50
2018-01-24T23:49:45.870Z,2.10
2018-01-24T23:52:13.394Z,1.50
2018-01-24T23:54:41.099Z,1.30
2018-01-24T23:57:09.474Z,1.50
2018-01-24T23:59:38.682Z,1.47
